Rancho Del Rey, CA

12:05 AM PDT on October 26, 2014 (GMT -0700)
KCACHULA13 | Change Station
CLOSE
Current Station
Personal Weather Station
Location: Chula Vista, CA
Elevation: 400 ft
Nearby Weather Stations
Active Advisory: Beach Hazard Statement

Elev 400 ft 32.63 °N, 117.03 °W | Updated 12 seconds ago

Mostly Cloudy
Mostly Cloudy
63.9 °F
Feels Like 63.9 °F
N
0.0
Wind Variable Wind from WSW
Gusts 0.0 mph

Today
High -- | Low -- °F
--% Chance of Precip.
Yesterday
High -- | Low -- °F
Precip. -- in
7:00 AM 6:02 PM
Waxing Crescent, 6% visible
Pressure 30.02 in
Visibility 10.0 miles
Clouds Mostly Cloudy 1600 ft
Dew Point 60 °F
Humidity 86%
Rainfall 0.00 in
Snow Depth Not available.
UV 0 out of 12
Pollen 3.90 out of 12
Ozone Good
PM2.5 Good
Flu Activity Sporadic
METAR KSDM 260653Z AUTO 00000KT 10SM BKN016 18/16 A3003 RMK AO2 SLP164 T01830161 TSNO $

More Conditions Fewer Conditions

Pressure 30.02 in
Visibility 10.0 miles
Clouds Mostly Cloudy 1600 ft
Dew Point 60 °F
Humidity 86%
Rainfall 0.00 in
Snow Depth Not available.
UV 0 out of 12
Pollen 3.90 out of 12
Ozone Good
PM2.5 Good
Flu Activity Sporadic
METAR KSDM 260653Z AUTO 00000KT 10SM BKN016 18/16 A3003 RMK AO2 SLP164 T01830161 TSNO $

More Conditions Fewer Conditions

10-Day Weather Forecast

Almanac

Astronomy

Oct. 26, 2014 Rise Set
Actual Time 7:00 AM PDT 6:02 PM PDT
Civil Twilight 6:35 AM PDT 6:28 PM PDT
Nautical Twilight 6:06 AM PDT 6:56 PM PDT
Astronomical Twilight 5:37 AM PDT 7:25 PM PDT
Moon 9:37 AM PDT 8:24 PM PDT
Length of Visible Light 11h 52m
Length of Day
11h 02m
Tomorrow will be 1m 49s shorter.
Waxing Crescent, 6% of the Moon is Illuminated
Today
Waxing Crescent
Oct 30
First Quarter
Nov 6
Full
Nov 14
Last Quarter
Nov 22
New

Community

WunderPhotos

Upload Photos

1,765,115 photos uploaded!

Nearby

Air Quality

  Air Quality AQ Index Pollutant
Yesterday Moderate
OZONE
Yesterday Moderate
PM2.5
Current Good
PM2.5
Current Good
OZONE
Saturday Moderate
PM2.5
Saturday Good
OZONE
Sunday Good
PM2.5
Sunday Good
OZONE
Monday Good
PM2.5
Monday Good
OZONE

Snow Depth

Station Depth Elevation
Virginia Lakes Ridge 0 in 9200 ft
Leavitt Lake 2 in 9400 ft
Sonora Pass 0 in 8800 ft
Summit Meadow 0 in 9122 ft
Poison Flat 0 in 7900 ft

Earthquake Activity

City Distance Mag. Time & Date
Running Springs, California 114 miles 3.1 4:07 AM PDT
2014-10-25
Maneadero, Mexico 97 miles 2.5 7:44 AM PDT
2014-10-24
San Felipe, Mexico 119 miles 3.0 11:00 PM PDT
2014-10-23
Brea, California 103 miles 2.9 3:35 PM PDT
2014-10-23
Minimum magnitude displayed is 2.5.

Coastal Water Temperatures

Place Temperature
La Jolla, CA 71.1 °F
San Diego, CA 73.9 °F

Nearby Weather Stations